Amherst, NH

8:45 PM EDT on April 26, 2015 (GMT -0400)
Amherst Hills | | Change Station
CLOSE
Current Station
Personal Weather Station
Location: Amherst, NH
Elevation: 325 ft
Nearby Weather Stations

Elev 325 ft 42.86 °N, 71.62 °W | Updated 5 seconds ago

Mostly Cloudy
Mostly Cloudy
52.1 °F
Feels Like 52.1 °F
N
3.8
Wind Variable Wind from NE
Gusts 7.6 mph

Today
High -- | Low -- °F
--% Chance of Precip.
Yesterday
High -- | Low -- °F
Precip. -- in
5:48 AM 7:41 PM
First Quarter, 60% visible
Pressure 30.37 in
Visibility 10.0 miles
Clouds Overcast 8000 ft
Dew Point 21 °F
Humidity 29%
Rainfall 0.00 in
Snow Depth Not available.
UV 0 out of 12
Pollen 8.70 out of 12
Air Quality Not available.
Flu Activity Regional
METAR KASH 262351Z VRB03KT 10SM OVC080 12/00 A2963 RMK AO2 53002 T01220000 10133 20122 SLP282 $

More Conditions Fewer Conditions

Pressure 30.37 in
Visibility 10.0 miles
Clouds Overcast 8000 ft
Dew Point 21 °F
Humidity 29%
Rainfall 0.00 in
Snow Depth Not available.
UV 0 out of 12
Pollen 8.70 out of 12
Air Quality Not available.
Flu Activity Regional
METAR KASH 262351Z VRB03KT 10SM OVC080 12/00 A2963 RMK AO2 53002 T01220000 10133 20122 SLP282 $

More Conditions Fewer Conditions

The full scope of the disaster following a powerful 7.8-magnitude earthquake in Nepal may not come into view for days, but global charities are already sending emergency aid. Click to see how you can help.

10-Day Weather Forecast

Almanac

Astronomy

Apr. 26, 2015 Rise Set
Actual Time
Civil Twilight
Nautical Twilight
Astronomical Twilight
Moon
Length of Visible Light
Length of Day
Tomorrow will be .
, % of the Moon is Illuminated

Today's Extremes

State Highs State Lows

Community

WunderPhotos

Upload Photos

1,817,184 photos uploaded!

WunderBlogs® & News

Nearby

Air Quality

  Air Quality AQ Index Pollutant
Not available.

Snow Depth

Station Depth Elevation

Earthquake Activity

City Distance Mag. Time & Date
Minimum magnitude displayed is 2.5.

Coastal Water Temperatures

Place Temperature

Stations

Nearby Weather Stations

Station Location Temp. Windchill Dew Point Humidity Wind Precip. Elev Updated Type